Main page
METAR-TAF:

METAR-TAF

Airports :

Jerez Airport

Jerez de la Frontera, Spain

latitude: 36-45N, longitude: 006-04W, elevation: 27 m

Current weather observation

The report was made 23 minutes ago, at 05:00 UTC
Wind 4 kt from the West/Southwest
Temperature 23°C
Humidity 94%
Pressure 1012 hPa
Visibility 10 km or more
no clouds below 1500 m and no cumulonimbus

METAR: LEJR 130500Z 25004KT CAVOK 23/22 Q1012

Time: 07:23 (05:23 UTC)

Forecast

The report was made 3 hours and 23 minutes ago, at 02:00 UTC
Forecast valid from 13 at 03 UTC to 14 at 03 UTC
Wind 6 kt from the North
Visibility 10 km or more
no clouds below 1500 m and no cumulonimbus
Probability 40% :
Temporary
from 13 at 03 UTC to 13 at 10 UTC
Scattered clouds at a height of 5000 ft, Cumulonimbus.
thunderstorm, rain
Probability 30% :
Temporary
from 13 at 05 UTC to 13 at 18 UTC
Wind 10 kt from the East

TAF: LEJR 130200Z 1303/1403 35006KT CAVOK TX39/1314Z TN21/1305Z PROB40 TEMPO 1303/1310 TSRA SCT050CB PROB30 TEMPO 1305/1318 09010KT

Weather observations and forecasts of more than 4000 airports (METAR and TAF reports).

The available stations are represented by yellow and red dots on the map.

Hover mouse over dot to see the name of the station.

Then click to see weather observations and forecasts.

To change the map : click on the green buttons with a black cross to zoom in, on the green button with a dash to zoom out, or on the green arrows for adjacent maps.


METAR-TAF: